sensor_id;sensor_type;location;lat;lon;timestamp;pressure;altitude;pressure_sealevel;temperature;humidity
45078;BME280;60508;42.622;25.416;2023-05-09T00:01:35;97147.94;;;13.43;77.87
45078;BME280;60508;42.622;25.416;2023-05-09T00:04:01;97139.94;;;13.31;77.59
45078;BME280;60508;42.622;25.416;2023-05-09T00:06:27;97144.13;;;13.00;78.09
45078;BME280;60508;42.622;25.416;2023-05-09T00:08:54;97139.31;;;13.02;78.57
45078;BME280;60508;42.622;25.416;2023-05-09T00:11:20;97150.97;;;13.07;79.59
45078;BME280;60508;42.622;25.416;2023-05-09T00:13:47;97154.41;;;13.03;78.62
45078;BME280;60508;42.622;25.416;2023-05-09T00:16:14;97132.53;;;12.60;79.99
45078;BME280;60508;42.622;25.416;2023-05-09T00:18:41;97140.16;;;12.85;79.64
45078;BME280;60508;42.622;25.416;2023-05-09T00:21:10;97125.81;;;12.79;79.70
45078;BME280;60508;42.622;25.416;2023-05-09T00:23:37;97133.03;;;12.96;79.12
45078;BME280;60508;42.622;25.416;2023-05-09T00:26:03;97140.16;;;12.85;79.13
45078;BME280;60508;42.622;25.416;2023-05-09T00:28:29;97140.16;;;12.85;79.47
45078;BME280;60508;42.622;25.416;2023-05-09T00:30:55;97138.22;;;13.03;78.59
45078;BME280;60508;42.622;25.416;2023-05-09T00:33:21;97137.78;;;13.11;77.89
45078;BME280;60508;42.622;25.416;2023-05-09T00:35:52;97136.50;;;13.13;77.94
45078;BME280;60508;42.622;25.416;2023-05-09T00:38:19;97137.00;;;13.10;78.59
45078;BME280;60508;42.622;25.416;2023-05-09T00:40:45;97134.41;;;12.99;78.82
45078;BME280;60508;42.622;25.416;2023-05-09T00:43:11;97145.53;;;13.24;78.29
45078;BME280;60508;42.622;25.416;2023-05-09T00:45:37;97144.63;;;13.36;77.47
45078;BME280;60508;42.622;25.416;2023-05-09T00:48:04;97141.34;;;13.33;77.48
45078;BME280;60508;42.622;25.416;2023-05-09T00:50:30;97145.88;;;13.50;77.41
45078;BME280;60508;42.622;25.416;2023-05-09T00:52:57;97128.94;;;13.32;77.15
45078;BME280;60508;42.622;25.416;2023-05-09T00:55:23;97135.78;;;13.23;77.57
45078;BME280;60508;42.622;25.416;2023-05-09T00:57:50;97147.56;;;13.34;77.17
45078;BME280;60508;42.622;25.416;2023-05-09T01:00:17;97150.06;;;13.41;77.15
45078;BME280;60508;42.622;25.416;2023-05-09T01:02:45;97138.97;;;13.37;77.29
45078;BME280;60508;42.622;25.416;2023-05-09T01:05:13;97141.47;;;13.44;76.81
45078;BME280;60508;42.622;25.416;2023-05-09T01:10:30;97145.22;;;13.43;77.06
45078;BME280;60508;42.622;25.416;2023-05-09T01:13:40;97149.88;;;13.47;76.35
45078;BME280;60508;42.622;25.416;2023-05-09T01:16:33;97145.34;;;13.31;77.53
45078;BME280;60508;42.622;25.416;2023-05-09T01:21:48;97151.50;;;13.48;77.08
45078;BME280;60508;42.622;25.416;2023-05-09T01:27:19;97158.16;;;13.41;77.47
45078;BME280;60508;42.622;25.416;2023-05-09T01:29:47;97159.09;;;13.29;77.03
45078;BME280;60508;42.622;25.416;2023-05-09T01:32:19;97148.47;;;13.01;78.04
45078;BME280;60508;42.622;25.416;2023-05-09T01:34:48;97161.28;;;13.10;78.34
45078;BME280;60508;42.622;25.416;2023-05-09T01:37:18;97151.38;;;13.16;78.76
45078;BME280;60508;42.622;25.416;2023-05-09T01:39:49;97152.38;;;13.10;78.31
45078;BME280;60508;42.622;25.416;2023-05-09T01:42:19;97142.38;;;13.10;78.27
45078;BME280;60508;42.622;25.416;2023-05-09T01:44:46;97140.88;;;13.20;77.92
45078;BME280;60508;42.622;25.416;2023-05-09T01:47:14;97154.13;;;13.21;78.76
45078;BME280;60508;42.622;25.416;2023-05-09T01:49:42;97136.84;;;13.22;78.05
45078;BME280;60508;42.622;25.416;2023-05-09T01:52:12;97146.34;;;13.25;77.80
45078;BME280;60508;42.622;25.416;2023-05-09T01:54:40;97156.81;;;13.43;77.61
45078;BME280;60508;42.622;25.416;2023-05-09T01:57:10;97148.97;;;13.42;77.26
45078;BME280;60508;42.622;25.416;2023-05-09T01:59:39;97164.38;;;13.41;77.27
45078;BME280;60508;42.622;25.416;2023-05-09T02:02:06;97159.63;;;13.48;76.52
45078;BME280;60508;42.622;25.416;2023-05-09T02:04:33;97153.63;;;13.46;76.17
45078;BME280;60508;42.622;25.416;2023-05-09T02:07:00;97164.16;;;13.48;76.11
45078;BME280;60508;42.622;25.416;2023-05-09T02:09:27;97166.03;;;13.25;77.11
45078;BME280;60508;42.622;25.416;2023-05-09T02:11:53;97164.16;;;13.26;77.32
45078;BME280;60508;42.622;25.416;2023-05-09T02:14:19;97158.75;;;13.04;77.72
45078;BME280;60508;42.622;25.416;2023-05-09T02:16:45;97152.03;;;13.06;77.64
45078;BME280;60508;42.622;25.416;2023-05-09T02:19:11;97143.06;;;13.01;77.83
45078;BME280;60508;42.622;25.416;2023-05-09T02:21:37;97167.44;;;13.28;78.22
45078;BME280;60508;42.622;25.416;2023-05-09T02:24:03;97169.03;;;13.29;78.83
45078;BME280;60508;42.622;25.416;2023-05-09T02:26:30;97167.38;;;13.23;78.15
45078;BME280;60508;42.622;25.416;2023-05-09T02:28:57;97157.00;;;13.14;79.14
45078;BME280;60508;42.622;25.416;2023-05-09T02:31:24;97175.13;;;13.36;79.13
45078;BME280;60508;42.622;25.416;2023-05-09T02:33:53;97161.31;;;13.32;78.71
45078;BME280;60508;42.622;25.416;2023-05-09T02:36:21;97161.03;;;13.12;78.73
45078;BME280;60508;42.622;25.416;2023-05-09T02:38:47;97177.56;;;13.21;78.23
45078;BME280;60508;42.622;25.416;2023-05-09T02:41:16;97171.50;;;13.30;77.81
45078;BME280;60508;42.622;25.416;2023-05-09T02:43:42;97176.16;;;13.35;78.13
45078;BME280;60508;42.622;25.416;2023-05-09T02:46:08;97179.53;;;13.25;78.20
45078;BME280;60508;42.622;25.416;2023-05-09T02:48:35;97181.34;;;13.20;78.45
45078;BME280;60508;42.622;25.416;2023-05-09T02:51:01;97185.81;;;13.31;78.02
45078;BME280;60508;42.622;25.416;2023-05-09T02:53:27;97189.22;;;13.43;78.14
45078;BME280;60508;42.622;25.416;2023-05-09T02:55:53;97184.31;;;13.40;77.92
45078;BME280;60508;42.622;25.416;2023-05-09T02:58:19;97187.84;;;13.41;76.94
45078;BME280;60508;42.622;25.416;2023-05-09T03:00:45;97189.00;;;13.28;77.91
45078;BME280;60508;42.622;25.416;2023-05-09T03:03:13;97184.88;;;13.20;78.86
45078;BME280;60508;42.622;25.416;2023-05-09T03:05:40;97190.63;;;13.29;79.50
45078;BME280;60508;42.622;25.416;2023-05-09T03:08:06;97188.72;;;13.24;79.89
45078;BME280;60508;42.622;25.416;2023-05-09T03:10:33;97201.44;;;13.07;79.84
45078;BME280;60508;42.622;25.416;2023-05-09T03:12:59;97194.56;;;12.99;80.44
45078;BME280;60508;42.622;25.416;2023-05-09T03:15:26;97203.69;;;12.76;81.67
45078;BME280;60508;42.622;25.416;2023-05-09T03:17:52;97191.44;;;12.68;80.36
45078;BME280;60508;42.622;25.416;2023-05-09T03:20:20;97202.69;;;12.48;79.53
45078;BME280;60508;42.622;25.416;2023-05-09T03:22:46;97209.22;;;12.18;80.90
45078;BME280;60508;42.622;25.416;2023-05-09T03:25:13;97209.53;;;12.05;82.46
45078;BME280;60508;42.622;25.416;2023-05-09T03:27:38;97219.16;;;12.01;82.49
45078;BME280;60508;42.622;25.416;2023-05-09T03:30:08;97232.88;;;11.87;83.69
45078;BME280;60508;42.622;25.416;2023-05-09T03:32:34;97230.06;;;11.94;82.43
45078;BME280;60508;42.622;25.416;2023-05-09T03:35:01;97228.78;;;11.97;81.40
45078;BME280;60508;42.622;25.416;2023-05-09T03:37:27;97246.66;;;12.03;81.45
45078;BME280;60508;42.622;25.416;2023-05-09T03:39:54;97235.63;;;11.76;81.92
45078;BME280;60508;42.622;25.416;2023-05-09T03:42:21;97241.00;;;11.76;81.85
45078;BME280;60508;42.622;25.416;2023-05-09T03:44:49;97235.41;;;11.65;81.51
45078;BME280;60508;42.622;25.416;2023-05-09T03:47:18;97236.13;;;11.61;81.69
45078;BME280;60508;42.622;25.416;2023-05-09T03:49:44;97244.19;;;11.61;82.41
45078;BME280;60508;42.622;25.416;2023-05-09T03:52:12;97242.16;;;11.39;83.05
45078;BME280;60508;42.622;25.416;2023-05-09T03:54:38;97228.59;;;11.22;83.57
45078;BME280;60508;42.622;25.416;2023-05-09T03:57:04;97237.69;;;11.45;83.57
45078;BME280;60508;42.622;25.416;2023-05-09T03:59:31;97255.38;;;11.41;83.34
45078;BME280;60508;42.622;25.416;2023-05-09T04:01:58;97260.84;;;11.46;83.83
45078;BME280;60508;42.622;25.416;2023-05-09T04:04:25;97257.34;;;11.45;82.99
45078;BME280;60508;42.622;25.416;2023-05-09T04:06:52;97263.06;;;11.49;83.38
45078;BME280;60508;42.622;25.416;2023-05-09T04:09:18;97255.72;;;11.44;83.31
45078;BME280;60508;42.622;25.416;2023-05-09T04:11:45;97252.91;;;11.39;83.48
45078;BME280;60508;42.622;25.416;2023-05-09T04:14:12;97265.19;;;11.47;84.18
45078;BME280;60508;42.622;25.416;2023-05-09T04:16:39;97260.28;;;11.44;83.63
45078;BME280;60508;42.622;25.416;2023-05-09T04:19:05;97263.25;;;11.71;82.44
45078;BME280;60508;42.622;25.416;2023-05-09T04:21:32;97268.66;;;11.59;82.01
45078;BME280;60508;42.622;25.416;2023-05-09T04:24:00;97269.97;;;11.57;82.79
45078;BME280;60508;42.622;25.416;2023-05-09T04:26:40;97269.50;;;11.60;82.49
45078;BME280;60508;42.622;25.416;2023-05-09T04:29:10;97276.47;;;11.73;82.14
45078;BME280;60508;42.622;25.416;2023-05-09T04:31:36;97254.25;;;11.65;81.44
45078;BME280;60508;42.622;25.416;2023-05-09T04:34:02;97262.66;;;11.69;81.37
45078;BME280;60508;42.622;25.416;2023-05-09T04:36:32;97267.34;;;11.74;81.74
45078;BME280;60508;42.622;25.416;2023-05-09T04:38:58;97283.50;;;11.74;81.73
45078;BME280;60508;42.622;25.416;2023-05-09T04:41:26;97278.47;;;11.77;81.55
45078;BME280;60508;42.622;25.416;2023-05-09T04:43:52;97281.25;;;11.82;81.22
45078;BME280;60508;42.622;25.416;2023-05-09T04:46:19;97270.13;;;11.79;81.16
45078;BME280;60508;42.622;25.416;2023-05-09T04:48:45;97274.50;;;11.56;82.69
45078;BME280;60508;42.622;25.416;2023-05-09T04:51:11;97279.47;;;11.88;82.29
45078;BME280;60508;42.622;25.416;2023-05-09T04:53:37;97287.19;;;11.96;81.57
45078;BME280;60508;42.622;25.416;2023-05-09T04:56:04;97285.69;;;12.17;80.62
45078;BME280;60508;42.622;25.416;2023-05-09T04:58:31;97290.22;;;12.29;79.82
45078;BME280;60508;42.622;25.416;2023-05-09T05:00:59;97290.69;;;12.26;79.58
45078;BME280;60508;42.622;25.416;2023-05-09T05:03:25;97287.47;;;12.40;79.54
45078;BME280;60508;42.622;25.416;2023-05-09T05:05:51;97285.44;;;12.48;79.02
45078;BME280;60508;42.622;25.416;2023-05-09T05:08:17;97294.44;;;12.53;78.86
45078;BME280;60508;42.622;25.416;2023-05-09T05:10:44;97267.25;;;12.55;78.49
45078;BME280;60508;42.622;25.416;2023-05-09T05:13:12;97284.56;;;12.76;78.35
45078;BME280;60508;42.622;25.416;2023-05-09T05:15:42;97289.22;;;12.64;77.77
45078;BME280;60508;42.622;25.416;2023-05-09T05:18:10;97294.44;;;12.70;77.94
45078;BME280;60508;42.622;25.416;2023-05-09T05:20:36;97296.97;;;12.60;78.05
45078;BME280;60508;42.622;25.416;2023-05-09T05:23:04;97294.53;;;12.58;78.70
45078;BME280;60508;42.622;25.416;2023-05-09T05:25:31;97295.59;;;12.57;77.58
45078;BME280;60508;42.622;25.416;2023-05-09T05:27:59;97294.28;;;12.60;78.36
45078;BME280;60508;42.622;25.416;2023-05-09T05:30:25;97300.56;;;12.49;78.03
45078;BME280;60508;42.622;25.416;2023-05-09T05:32:51;97293.75;;;12.46;79.42
45078;BME280;60508;42.622;25.416;2023-05-09T05:35:19;97301.38;;;12.49;79.03
45078;BME280;60508;42.622;25.416;2023-05-09T05:37:49;97297.72;;;12.55;79.67
45078;BME280;60508;42.622;25.416;2023-05-09T05:40:16;97300.00;;;12.64;79.60
45078;BME280;60508;42.622;25.416;2023-05-09T05:42:44;97300.50;;;12.77;79.29
45078;BME280;60508;42.622;25.416;2023-05-09T05:45:11;97290.69;;;12.71;77.40
45078;BME280;60508;42.622;25.416;2023-05-09T05:47:41;97289.22;;;12.47;78.32
45078;BME280;60508;42.622;25.416;2023-05-09T05:50:06;97308.56;;;12.44;79.86
45078;BME280;60508;42.622;25.416;2023-05-09T05:52:37;97298.13;;;12.64;79.51
45078;BME280;60508;42.622;25.416;2023-05-09T05:55:05;97299.59;;;12.72;79.07
45078;BME280;60508;42.622;25.416;2023-05-09T05:57:31;97300.09;;;12.86;78.72
45078;BME280;60508;42.622;25.416;2023-05-09T05:59:57;97310.47;;;12.94;78.32
45078;BME280;60508;42.622;25.416;2023-05-09T06:02:24;97306.56;;;13.02;78.03
45078;BME280;60508;42.622;25.416;2023-05-09T06:04:50;97304.59;;;12.97;77.69
45078;BME280;60508;42.622;25.416;2023-05-09T06:07:17;97304.59;;;12.80;77.58
45078;BME280;60508;42.622;25.416;2023-05-09T06:09:44;97309.31;;;12.56;79.13
45078;BME280;60508;42.622;25.416;2023-05-09T06:12:11;97302.34;;;12.14;81.32
45078;BME280;60508;42.622;25.416;2023-05-09T06:14:42;97310.72;;;12.30;81.08
45078;BME280;60508;42.622;25.416;2023-05-09T06:17:08;97302.50;;;12.36;81.56
45078;BME280;60508;42.622;25.416;2023-05-09T06:19:35;97309.69;;;12.31;80.98
45078;BME280;60508;42.622;25.416;2023-05-09T06:22:02;97310.81;;;12.35;81.46
45078;BME280;60508;42.622;25.416;2023-05-09T06:24:28;97308.81;;;12.42;81.29
45078;BME280;60508;42.622;25.416;2023-05-09T06:26:55;97312.41;;;12.48;80.32
45078;BME280;60508;42.622;25.416;2023-05-09T06:29:20;97302.06;;;12.56;79.97
45078;BME280;60508;42.622;25.416;2023-05-09T06:31:47;97310.69;;;12.75;78.47
45078;BME280;60508;42.622;25.416;2023-05-09T06:34:13;97310.91;;;12.86;77.97
45078;BME280;60508;42.622;25.416;2023-05-09T06:36:39;97304.81;;;12.78;79.06
45078;BME280;60508;42.622;25.416;2023-05-09T06:39:05;97306.47;;;12.96;77.20
45078;BME280;60508;42.622;25.416;2023-05-09T06:41:32;97315.56;;;12.90;77.21
45078;BME280;60508;42.622;25.416;2023-05-09T06:43:57;97302.22;;;13.01;77.32
45078;BME280;60508;42.622;25.416;2023-05-09T06:46:24;97313.50;;;13.14;77.54
45078;BME280;60508;42.622;25.416;2023-05-09T06:48:50;97308.88;;;13.32;75.05
45078;BME280;60508;42.622;25.416;2023-05-09T06:51:16;97302.47;;;13.33;74.91
45078;BME280;60508;42.622;25.416;2023-05-09T06:53:42;97301.38;;;13.17;75.14
45078;BME280;60508;42.622;25.416;2023-05-09T06:56:09;97309.66;;;13.10;75.08
45078;BME280;60508;42.622;25.416;2023-05-09T06:58:35;97297.81;;;12.94;76.69
45078;BME280;60508;42.622;25.416;2023-05-09T07:01:01;97304.88;;;13.18;76.56
45078;BME280;60508;42.622;25.416;2023-05-09T07:03:29;97302.47;;;13.16;75.82
45078;BME280;60508;42.622;25.416;2023-05-09T07:05:55;97297.94;;;13.05;75.89
45078;BME280;60508;42.622;25.416;2023-05-09T07:08:24;97304.41;;;12.87;77.18
45078;BME280;60508;42.622;25.416;2023-05-09T07:10:51;97309.72;;;13.15;76.86
45078;BME280;60508;42.622;25.416;2023-05-09T07:13:17;97308.56;;;13.28;76.63
45078;BME280;60508;42.622;25.416;2023-05-09T07:15:43;97303.63;;;13.03;77.73
45078;BME280;60508;42.622;25.416;2023-05-09T07:18:09;97297.56;;;13.13;76.24
45078;BME280;60508;42.622;25.416;2023-05-09T07:20:35;97303.03;;;13.01;76.72
45078;BME280;60508;42.622;25.416;2023-05-09T07:23:02;97294.69;;;12.69;77.31
45078;BME280;60508;42.622;25.416;2023-05-09T07:25:28;97312.31;;;12.42;79.34
45078;BME280;60508;42.622;25.416;2023-05-09T07:27:54;97314.75;;;12.44;79.69
45078;BME280;60508;42.622;25.416;2023-05-09T07:30:21;97309.38;;;12.61;79.86
45078;BME280;60508;42.622;25.416;2023-05-09T07:32:47;97311.78;;;12.74;80.28
45078;BME280;60508;42.622;25.416;2023-05-09T07:35:13;97313.59;;;12.86;79.43
45078;BME280;60508;42.622;25.416;2023-05-09T07:37:39;97314.16;;;12.88;79.04
45078;BME280;60508;42.622;25.416;2023-05-09T07:40:05;97326.63;;;12.77;80.20
45078;BME280;60508;42.622;25.416;2023-05-09T07:42:32;97325.28;;;12.74;79.87
45078;BME280;60508;42.622;25.416;2023-05-09T07:44:59;97322.72;;;12.68;80.25
45078;BME280;60508;42.622;25.416;2023-05-09T07:47:25;97316.00;;;12.53;80.39
45078;BME280;60508;42.622;25.416;2023-05-09T07:49:51;97318.19;;;12.39;82.53
45078;BME280;60508;42.622;25.416;2023-05-09T07:52:18;97324.66;;;12.55;82.91
45078;BME280;60508;42.622;25.416;2023-05-09T07:54:44;97307.28;;;12.80;82.63
45078;BME280;60508;42.622;25.416;2023-05-09T07:57:10;97321.75;;;12.91;82.49
45078;BME280;60508;42.622;25.416;2023-05-09T07:59:37;97320.53;;;12.99;81.87
45078;BME280;60508;42.622;25.416;2023-05-09T08:02:03;97312.25;;;12.88;82.69
45078;BME280;60508;42.622;25.416;2023-05-09T08:04:29;97310.91;;;12.86;82.30
45078;BME280;60508;42.622;25.416;2023-05-09T08:06:56;97309.13;;;12.46;83.05
45078;BME280;60508;42.622;25.416;2023-05-09T08:09:22;97313.06;;;12.55;83.67
45078;BME280;60508;42.622;25.416;2023-05-09T08:11:48;97324.19;;;12.30;83.83
45078;BME280;60508;42.622;25.416;2023-05-09T08:14:14;97333.25;;;12.23;84.46
45078;BME280;60508;42.622;25.416;2023-05-09T08:16:40;97334.16;;;11.88;84.50
45078;BME280;60508;42.622;25.416;2023-05-09T08:19:08;97335.34;;;11.93;84.76
45078;BME280;60508;42.622;25.416;2023-05-09T08:21:34;97336.00;;;11.88;85.94
45078;BME280;60508;42.622;25.416;2023-05-09T08:24:00;97339.53;;;11.88;85.09
45078;BME280;60508;42.622;25.416;2023-05-09T08:26:26;97340.13;;;11.91;84.22
45078;BME280;60508;42.622;25.416;2023-05-09T08:28:52;97329.56;;;12.01;85.54
45078;BME280;60508;42.622;25.416;2023-05-09T08:31:19;97337.31;;;11.85;84.93
45078;BME280;60508;42.622;25.416;2023-05-09T08:33:45;97341.66;;;11.98;85.26
45078;BME280;60508;42.622;25.416;2023-05-09T08:36:12;97341.03;;;12.08;84.37
45078;BME280;60508;42.622;25.416;2023-05-09T08:38:38;97343.88;;;12.30;83.46
45078;BME280;60508;42.622;25.416;2023-05-09T08:41:05;97338.88;;;12.22;82.35
45078;BME280;60508;42.622;25.416;2023-05-09T08:43:33;97349.13;;;12.08;82.87
45078;BME280;60508;42.622;25.416;2023-05-09T08:46:06;97338.59;;;12.07;84.08
45078;BME280;60508;42.622;25.416;2023-05-09T08:48:34;97334.25;;;12.34;83.34
45078;BME280;60508;42.622;25.416;2023-05-09T08:51:04;97323.03;;;12.54;81.46
45078;BME280;60508;42.622;25.416;2023-05-09T08:53:31;97325.63;;;12.49;81.77
45078;BME280;60508;42.622;25.416;2023-05-09T08:55:59;97328.50;;;12.59;81.35
45078;BME280;60508;42.622;25.416;2023-05-09T08:58:27;97341.66;;;12.27;81.62
45078;BME280;60508;42.622;25.416;2023-05-09T09:00:53;97344.25;;;12.22;82.99
45078;BME280;60508;42.622;25.416;2023-05-09T09:03:23;97346.47;;;12.25;83.21
45078;BME280;60508;42.622;25.416;2023-05-09T09:05:52;97338.28;;;12.20;84.25
45078;BME280;60508;42.622;25.416;2023-05-09T09:08:21;97335.50;;;12.44;82.98
45078;BME280;60508;42.622;25.416;2023-05-09T09:10:47;97337.56;;;12.53;82.80
45078;BME280;60508;42.622;25.416;2023-05-09T09:13:14;97331.53;;;12.63;82.33
45078;BME280;60508;42.622;25.416;2023-05-09T09:15:44;97337.50;;;12.65;81.01
45078;BME280;60508;42.622;25.416;2023-05-09T09:18:15;97321.66;;;12.52;81.77
45078;BME280;60508;42.622;25.416;2023-05-09T09:20:47;97349.25;;;12.59;81.20
45078;BME280;60508;42.622;25.416;2023-05-09T09:23:19;97339.63;;;12.63;81.49
45078;BME280;60508;42.622;25.416;2023-05-09T09:25:46;97341.00;;;12.66;81.57
45078;BME280;60508;42.622;25.416;2023-05-09T09:28:12;97338.41;;;12.71;81.36
45078;BME280;60508;42.622;25.416;2023-05-09T09:30:47;97350.75;;;12.84;81.03
45078;BME280;60508;42.622;25.416;2023-05-09T09:33:24;97349.22;;;12.88;80.33
45078;BME280;60508;42.622;25.416;2023-05-09T09:35:53;97337.19;;;12.78;81.33
45078;BME280;60508;42.622;25.416;2023-05-09T09:38:20;97350.06;;;12.59;81.68
45078;BME280;60508;42.622;25.416;2023-05-09T09:43:19;97348.22;;;12.31;83.26
45078;BME280;60508;42.622;25.416;2023-05-09T09:45:49;97345.97;;;11.99;83.80
45078;BME280;60508;42.622;25.416;2023-05-09T09:48:23;97341.06;;;11.96;85.69
45078;BME280;60508;42.622;25.416;2023-05-09T09:50:49;97354.13;;;12.16;83.37
45078;BME280;60508;42.622;25.416;2023-05-09T09:53:15;97335.66;;;12.08;84.00
45078;BME280;60508;42.622;25.416;2023-05-09T09:55:49;97346.66;;;12.07;84.34
45078;BME280;60508;42.622;25.416;2023-05-09T09:58:17;97352.81;;;12.19;84.84
45078;BME280;60508;42.622;25.416;2023-05-09T10:00:43;97352.00;;;12.18;84.27
45078;BME280;60508;42.622;25.416;2023-05-09T10:03:14;97352.00;;;11.66;85.03
45078;BME280;60508;42.622;25.416;2023-05-09T10:05:41;97352.09;;;11.71;87.66
45078;BME280;60508;42.622;25.416;2023-05-09T10:08:07;97345.41;;;11.85;89.29
45078;BME280;60508;42.622;25.416;2023-05-09T10:10:35;97343.88;;;12.01;89.51
45078;BME280;60508;42.622;25.416;2023-05-09T10:13:05;97340.84;;;12.27;87.96
45078;BME280;60508;42.622;25.416;2023-05-09T10:15:33;97341.00;;;12.20;85.92
45078;BME280;60508;42.622;25.416;2023-05-09T10:18:01;97339.56;;;12.29;86.60
45078;BME280;60508;42.622;25.416;2023-05-09T10:20:30;97341.81;;;12.49;85.42
45078;BME280;60508;42.622;25.416;2023-05-09T10:22:57;97343.38;;;12.62;83.01
45078;BME280;60508;42.622;25.416;2023-05-09T10:25:43;97345.50;;;12.31;85.92
45078;BME280;60508;42.622;25.416;2023-05-09T10:28:14;97349.69;;;12.10;87.56
45078;BME280;60508;42.622;25.416;2023-05-09T10:33:12;97350.97;;;12.19;87.33
45078;BME280;60508;42.622;25.416;2023-05-09T10:35:46;97350.50;;;12.11;87.33
45078;BME280;60508;42.622;25.416;2023-05-09T10:38:15;97347.19;;;12.20;86.66
45078;BME280;60508;42.622;25.416;2023-05-09T10:40:41;97350.72;;;12.21;86.98
45078;BME280;60508;42.622;25.416;2023-05-09T10:43:08;97360.50;;;12.39;87.07
45078;BME280;60508;42.622;25.416;2023-05-09T10:45:34;97334.16;;;12.58;87.07
45078;BME280;60508;42.622;25.416;2023-05-09T10:48:01;97347.47;;;12.65;85.49
45078;BME280;60508;42.622;25.416;2023-05-09T10:50:30;97354.59;;;12.88;82.91
45078;BME280;60508;42.622;25.416;2023-05-09T10:53:03;97355.34;;;13.00;82.36
45078;BME280;60508;42.622;25.416;2023-05-09T10:55:51;97349.06;;;12.94;82.08
45078;BME280;60508;42.622;25.416;2023-05-09T10:58:25;97350.81;;;12.72;82.55
45078;BME280;60508;42.622;25.416;2023-05-09T11:00:54;97350.50;;;12.85;83.49
45078;BME280;60508;42.622;25.416;2023-05-09T11:03:21;97351.34;;;13.03;82.77
45078;BME280;60508;42.622;25.416;2023-05-09T11:05:50;97355.78;;;13.26;82.12
45078;BME280;60508;42.622;25.416;2023-05-09T11:08:28;97348.09;;;13.35;81.92
45078;BME280;60508;42.622;25.416;2023-05-09T11:10:57;97349.13;;;13.50;79.98
45078;BME280;60508;42.622;25.416;2023-05-09T11:13:29;97346.50;;;13.56;80.34
45078;BME280;60508;42.622;25.416;2023-05-09T11:18:27;97346.28;;;13.40;79.78
45078;BME280;60508;42.622;25.416;2023-05-09T11:20:57;97350.38;;;13.43;80.98
45078;BME280;60508;42.622;25.416;2023-05-09T11:23:25;97338.56;;;13.32;81.02
45078;BME280;60508;42.622;25.416;2023-05-09T11:25:52;97347.56;;;13.21;79.17
45078;BME280;60508;42.622;25.416;2023-05-09T11:28:50;97342.94;;;13.16;80.27
45078;BME280;60508;42.622;25.416;2023-05-09T11:31:17;97340.56;;;13.37;79.55
45078;BME280;60508;42.622;25.416;2023-05-09T11:33:45;97345.28;;;13.63;78.58
45078;BME280;60508;42.622;25.416;2023-05-09T11:36:26;97349.25;;;13.78;76.66
45078;BME280;60508;42.622;25.416;2023-05-09T11:39:08;97335.22;;;14.03;76.95
45078;BME280;60508;42.622;25.416;2023-05-09T11:41:42;97331.72;;;14.02;73.99
45078;BME280;60508;42.622;25.416;2023-05-09T11:44:19;97342.22;;;13.99;74.49
45078;BME280;60508;42.622;25.416;2023-05-09T11:46:47;97345.34;;;13.91;75.45
45078;BME280;60508;42.622;25.416;2023-05-09T11:49:14;97348.72;;;14.03;76.16
45078;BME280;60508;42.622;25.416;2023-05-09T11:51:40;97337.22;;;14.13;76.33
45078;BME280;60508;42.622;25.416;2023-05-09T11:54:08;97336.59;;;13.61;77.68
45078;BME280;60508;42.622;25.416;2023-05-09T11:56:39;97336.81;;;13.04;80.92
45078;BME280;60508;42.622;25.416;2023-05-09T11:59:08;97327.13;;;13.08;80.41
45078;BME280;60508;42.622;25.416;2023-05-09T12:01:35;97321.50;;;12.92;81.91
45078;BME280;60508;42.622;25.416;2023-05-09T12:04:01;97324.78;;;12.94;81.15
45078;BME280;60508;42.622;25.416;2023-05-09T12:06:27;97319.78;;;13.20;78.97
45078;BME280;60508;42.622;25.416;2023-05-09T12:08:55;97331.41;;;13.38;78.16
45078;BME280;60508;42.622;25.416;2023-05-09T12:11:23;97329.31;;;13.62;76.96
45078;BME280;60508;42.622;25.416;2023-05-09T12:13:50;97341.19;;;13.83;76.65
45078;BME280;60508;42.622;25.416;2023-05-09T12:16:18;97336.00;;;13.76;76.58
45078;BME280;60508;42.622;25.416;2023-05-09T12:18:50;97336.91;;;13.65;77.47
45078;BME280;60508;42.622;25.416;2023-05-09T12:21:17;97323.41;;;13.65;77.65
45078;BME280;60508;42.622;25.416;2023-05-09T12:23:45;97328.91;;;13.92;76.58
45078;BME280;60508;42.622;25.416;2023-05-09T12:26:11;97325.50;;;14.02;75.80
45078;BME280;60508;42.622;25.416;2023-05-09T12:28:37;97320.22;;;14.12;75.26
45078;BME280;60508;42.622;25.416;2023-05-09T12:31:04;97312.31;;;14.05;74.48
45078;BME280;60508;42.622;25.416;2023-05-09T12:33:31;97312.69;;;13.92;74.66
45078;BME280;60508;42.622;25.416;2023-05-09T12:36:07;97316.69;;;13.67;74.72
45078;BME280;60508;42.622;25.416;2023-05-09T12:38:34;97309.66;;;13.27;76.77
45078;BME280;60508;42.622;25.416;2023-05-09T12:41:06;97310.09;;;13.58;75.25
45078;BME280;60508;42.622;25.416;2023-05-09T12:43:35;97306.81;;;13.56;75.39
45078;BME280;60508;42.622;25.416;2023-05-09T12:46:01;97305.53;;;13.42;77.03
45078;BME280;60508;42.622;25.416;2023-05-09T12:48:29;97294.66;;;13.54;76.65
45078;BME280;60508;42.622;25.416;2023-05-09T12:50:55;97279.13;;;13.66;75.59
45078;BME280;60508;42.622;25.416;2023-05-09T12:53:27;97278.97;;;13.73;75.21
45078;BME280;60508;42.622;25.416;2023-05-09T12:56:03;97296.16;;;13.88;74.79
45078;BME280;60508;42.622;25.416;2023-05-09T12:58:31;97301.63;;;13.94;74.63
45078;BME280;60508;42.622;25.416;2023-05-09T13:00:59;97297.91;;;14.00;74.38
45078;BME280;60508;42.622;25.416;2023-05-09T13:03:26;97295.03;;;13.84;75.38
45078;BME280;60508;42.622;25.416;2023-05-09T13:06:04;97302.06;;;13.63;76.79
45078;BME280;60508;42.622;25.416;2023-05-09T13:08:31;97295.34;;;13.44;76.63
45078;BME280;60508;42.622;25.416;2023-05-09T13:10:57;97291.63;;;13.50;76.47